Time;durP1;ratioP1;P1;durP2;ratioP2;P2;SDS_P1;SDS_P2;PMS_P1;PMS_P2;Temp;Humidity;BMP_temperature;BMP_pressure;BME280_temperature;BME280_humidity;BME280_pressure;Samples;Min_cycle;Max_cycle;Signal;HPM_P1;HPM_P2
2023/03/26 00:01:04;;;;;;;14.05;3.90;;;9.80;99.90;;;;;;4126815;28;20090;-78
2023/03/26 00:03:05;;;;;;;10.93;2.97;;;9.80;99.90;;;;;;4130815;28;20046;-79
2023/03/26 00:05:07;;;;;;;12.05;3.50;;;9.90;99.90;;;;;;4132752;28;20476;-80
2023/03/26 00:07:09;;;;;;;;;;;9.90;99.90;;;;;;4130106;28;20141;-78
2023/03/26 00:09:12;;;;;;;14.88;3.55;;;9.90;99.90;;;;;;4129483;28;19910;-79
2023/03/26 00:11:15;;;;;;;19.20;4.47;;;9.90;99.90;;;;;;4130345;28;20085;-79
2023/03/26 00:13:15;;;;;;;16.38;4.05;;;9.90;99.90;;;;;;4129986;28;20031;-78
2023/03/26 00:15:16;;;;;;;14.50;3.38;;;9.90;99.90;;;;;;4128110;28;20046;-78
2023/03/26 00:17:17;;;;;;;13.55;3.88;;;9.90;99.90;;;;;;4127610;28;20037;-78
2023/03/26 00:19:18;;;;;;;18.92;4.30;;;9.80;99.90;;;;;;4129224;28;20034;-72
2023/03/26 00:21:21;;;;;;;14.35;3.47;;;9.90;99.90;;;;;;4129720;28;20031;-77
2023/03/26 00:23:21;;;;;;;16.83;3.97;;;9.80;99.90;;;;;;4137608;28;20058;-78
2023/03/26 00:25:25;;;;;;;16.27;4.03;;;9.80;99.90;;;;;;4131886;28;20039;-78
2023/03/26 00:27:26;;;;;;;14.48;3.50;;;9.90;99.90;;;;;;4127715;28;20077;-78
2023/03/26 00:29:27;;;;;;;18.80;3.55;;;9.90;99.90;;;;;;4129312;28;20133;-79
2023/03/26 00:31:27;;;;;;;15.02;3.45;;;9.90;99.90;;;;;;4128826;28;20042;-78
2023/03/26 00:33:30;;;;;;;17.85;4.28;;;9.90;99.90;;;;;;4135320;28;20096;-78
2023/03/26 00:35:31;;;;;;;14.50;3.63;;;9.90;99.90;;;;;;4132863;28;20038;-78
2023/03/26 00:37:32;;;;;;;13.48;3.28;;;10.00;99.90;;;;;;4133650;28;20512;-79
2023/03/26 00:39:38;;;;;;;17.60;4.10;;;10.00;99.90;;;;;;4128032;28;20037;-78
2023/03/26 00:41:41;;;;;;;9.93;3.55;;;10.00;99.90;;;;;;4128857;28;20044;-78
2023/03/26 00:43:45;;;;;;;22.92;4.75;;;10.00;99.90;;;;;;4131918;28;20401;-79
2023/03/26 00:45:47;;;;;;;16.60;3.50;;;10.00;99.90;;;;;;4128065;28;20081;-78
2023/03/26 00:47:47;;;;;;;20.20;4.47;;;10.00;99.90;;;;;;4135592;28;20044;-78
2023/03/26 00:49:49;;;;;;;16.95;3.17;;;10.00;99.90;;;;;;4130301;28;20113;-71
2023/03/26 00:51:50;;;;;;;12.25;2.88;;;10.00;99.90;;;;;;4133799;28;20485;-77
2023/03/26 00:53:50;;;;;;;16.48;3.78;;;10.00;99.90;;;;;;4133440;28;20034;-78
2023/03/26 00:55:51;;;;;;;15.15;3.38;;;10.00;99.90;;;;;;4132004;28;20117;-78
2023/03/26 00:57:54;;;;;;;24.65;4.18;;;9.90;99.90;;;;;;4134445;28;20121;-78
2023/03/26 00:59:55;;;;;;;22.85;4.30;;;9.90;99.90;;;;;;4131672;28;20029;-78
2023/03/26 01:01:57;;;;;;;14.10;3.47;;;9.90;99.90;;;;;;4128795;28;20038;-78
2023/03/26 01:04:22;;;;;;;12.07;3.33;;;9.90;99.90;;;;;;4130216;28;20034;-78
2023/03/26 01:06:31;;;;;;;15.93;3.83;;;9.90;99.90;;;;;;4128324;28;20100;-78
2023/03/26 01:08:49;;;;;;;19.98;3.63;;;9.90;99.90;;;;;;4130997;28;20393;-78
2023/03/26 01:10:50;;;;;;;14.50;3.20;;;9.80;99.90;;;;;;4127630;28;20109;-77
2023/03/26 01:12:51;;;;;;;16.75;3.92;;;9.80;99.90;;;;;;4128097;28;20089;-77
2023/03/26 01:14:55;;;;;;;16.73;3.30;;;9.80;99.90;;;;;;4131098;28;20046;-78
2023/03/26 01:17:00;;;;;;;20.35;4.10;;;9.80;99.90;;;;;;4128717;28;20037;-78
2023/03/26 01:19:00;;;;;;;15.07;3.75;;;9.80;99.90;;;;;;4128989;28;20034;-78
2023/03/26 01:21:04;;;;;;;19.73;3.85;;;9.80;99.90;;;;;;4129270;28;20564;-77
2023/03/26 01:23:06;;;;;;;24.30;5.05;;;9.80;99.90;;;;;;4133497;28;20536;-77
2023/03/26 01:25:08;;;;;;;20.02;4.07;;;9.80;99.90;;;;;;4127747;28;20112;-78
2023/03/26 01:27:19;;;;;;;14.85;3.83;;;9.80;99.90;;;;;;4132450;28;20408;-78
2023/03/26 01:29:30;;;;;;;13.68;3.75;;;9.80;99.90;;;;;;4126855;28;20041;-78
2023/03/26 01:31:43;;;;;;;15.15;3.88;;;9.80;99.90;;;;;;4127296;28;20449;-77
2023/03/26 01:34:23;;;;;;;13.43;3.10;;;9.80;99.90;;;;;;4130415;28;20422;-77
2023/03/26 01:36:40;;;;;;;15.68;3.55;;;9.80;99.90;;;;;;4079145;28;20059;-77
2023/03/26 01:38:49;;;;;;;16.25;3.03;;;9.80;99.90;;;;;;4124665;28;20035;-77
2023/03/26 01:40:55;;;;;;;21.30;3.97;;;9.80;99.90;;;;;;4128209;28;20041;-76
2023/03/26 01:43:07;;;;;;;8.75;3.20;;;9.70;99.90;;;;;;4130190;28;20121;-77
2023/03/26 01:45:20;;;;;;;19.10;4.07;;;9.70;99.90;;;;;;4128815;28;20027;-77
2023/03/26 01:47:21;;;;;;;13.10;2.85;;;9.70;99.90;;;;;;4127592;28;20031;-77
2023/03/26 01:49:22;;;;;;;12.02;2.60;;;9.70;99.90;;;;;;4131041;28;20049;-77
2023/03/26 01:51:32;;;;;;;8.00;2.42;;;9.80;99.90;;;;;;4131681;28;20030;-77
2023/03/26 01:53:36;;;;;;;11.60;2.60;;;9.80;99.90;;;;;;4134179;28;20120;-77
2023/03/26 01:56:04;;;;;;;17.13;3.45;;;9.80;99.90;;;;;;4130666;28;22702;-76
2023/03/26 01:58:19;;;;;;;7.47;2.20;;;9.80;99.90;;;;;;4130490;28;20033;-77
2023/03/26 02:00:31;;;;;;;12.57;3.08;;;9.80;99.90;;;;;;4126093;28;20036;-76
2023/03/26 02:02:57;;;;;;;13.95;2.47;;;9.80;99.90;;;;;;4131821;28;20034;-77
2023/03/26 02:05:07;;;;;;;11.38;3.50;;;9.70;99.90;;;;;;4128676;28;20069;-77
2023/03/26 02:07:16;;;;;;;11.48;3.35;;;9.80;99.90;;;;;;4129369;28;20038;-76
2023/03/26 02:09:23;;;;;;;12.57;2.83;;;9.80;99.90;;;;;;4132022;28;20041;-76
2023/03/26 02:11:24;;;;;;;14.95;3.25;;;9.80;99.90;;;;;;4131016;28;20044;-76
2023/03/26 02:13:25;;;;;;;14.07;3.08;;;9.80;99.90;;;;;;4131908;28;20104;-76
2023/03/26 02:15:26;;;;;;;13.27;3.17;;;9.80;99.90;;;;;;4128401;28;20038;-77
2023/03/26 02:17:28;;;;;;;11.75;2.75;;;9.80;99.90;;;;;;4132009;28;20520;-77
2023/03/26 02:19:29;;;;;;;;;;;9.80;99.90;;;;;;4129665;28;20456;-76
2023/03/26 02:21:32;;;;;;;9.38;2.53;;;9.80;99.90;;;;;;4127356;28;19910;-76
2023/03/26 02:23:37;;;;;;;12.38;3.08;;;9.80;99.90;;;;;;4130211;28;20030;-76
2023/03/26 02:25:38;;;;;;;17.98;3.90;;;9.80;99.90;;;;;;4127161;28;20037;-77
2023/03/26 02:27:39;;;;;;;12.02;3.45;;;9.90;99.90;;;;;;4131677;28;20031;-76
2023/03/26 02:29:41;;;;;;;12.82;3.15;;;9.90;99.90;;;;;;4129069;28;20529;-77
2023/03/26 02:31:42;;;;;;;10.57;2.63;;;9.80;99.90;;;;;;4129446;28;20034;-76
2023/03/26 02:33:46;;;;;;;11.77;3.22;;;9.90;99.90;;;;;;4127860;28;20058;-77
2023/03/26 02:35:48;;;;;;;13.27;3.85;;;9.80;99.90;;;;;;4127236;28;20407;-75
2023/03/26 02:37:49;;;;;;;14.55;3.10;;;9.80;99.90;;;;;;4127071;28;20065;-76
2023/03/26 02:39:50;;;;;;;9.57;3.08;;;9.80;99.90;;;;;;4128382;28;20034;-73
2023/03/26 02:41:50;;;;;;;8.75;2.60;;;9.80;99.90;;;;;;4131078;28;20031;-76
2023/03/26 02:43:51;;;;;;;11.85;2.65;;;9.80;99.90;;;;;;4129866;28;20093;-76
2023/03/26 02:45:52;;;;;;;16.20;3.97;;;9.80;99.90;;;;;;4129113;28;20397;-76
2023/03/26 02:47:52;;;;;;;15.23;3.63;;;9.80;99.90;;;;;;4132381;28;20065;-76
2023/03/26 02:49:53;;;;;;;10.18;2.88;;;9.80;99.90;;;;;;4127407;28;20035;-77
2023/03/26 02:51:55;;;;;;;13.73;3.38;;;9.80;99.90;;;;;;4127709;28;20042;-76
2023/03/26 02:53:55;;;;;;;14.45;3.72;;;9.80;99.90;;;;;;4126364;28;20038;-76
2023/03/26 02:55:57;;;;;;;11.57;3.10;;;9.70;99.90;;;;;;4129811;28;20034;-76
2023/03/26 02:57:57;;;;;;;13.57;3.45;;;9.70;99.90;;;;;;4128960;28;20027;-76
2023/03/26 02:59:58;;;;;;;9.60;2.97;;;9.70;99.90;;;;;;4128790;28;20520;-76
2023/03/26 03:01:59;;;;;;;12.15;2.55;;;9.70;99.90;;;;;;4129038;28;20030;-76
2023/03/26 03:04:02;;;;;;;11.27;2.80;;;9.70;99.90;;;;;;4131504;28;20449;-75
2023/03/26 03:06:03;;;;;;;13.43;3.08;;;9.70;99.90;;;;;;4126892;28;20117;-76
2023/03/26 03:08:04;;;;;;;11.90;3.65;;;9.70;99.90;;;;;;4127021;28;20053;-76
2023/03/26 03:10:08;;;;;;;13.13;3.03;;;9.70;99.90;;;;;;4128304;28;20054;-76
2023/03/26 03:12:09;;;;;;;14.95;3.15;;;9.70;99.90;;;;;;4133555;28;20027;-76
2023/03/26 03:14:10;;;;;;;12.90;3.53;;;9.70;99.90;;;;;;4130173;28;21417;-76
2023/03/26 03:16:10;;;;;;;15.50;3.70;;;9.70;99.90;;;;;;4123563;28;20427;-76
2023/03/26 03:18:11;;;;;;;11.65;3.28;;;9.70;99.90;;;;;;4127008;28;20035;-76
2023/03/26 03:20:12;;;;;;;9.48;3.35;;;9.70;99.90;;;;;;4128333;28;20031;-76
2023/03/26 03:22:12;;;;;;;11.20;3.42;;;9.70;99.90;;;;;;4128255;28;20030;-76
2023/03/26 03:24:17;;;;;;;10.05;2.97;;;9.70;99.90;;;;;;4135019;28;20499;-76
2023/03/26 03:26:26;;;;;;;11.30;3.05;;;9.70;99.90;;;;;;4127838;28;20173;-76
2023/03/26 03:28:27;;;;;;;12.90;3.10;;;9.70;99.90;;;;;;4130549;28;20100;-76
2023/03/26 03:30:27;;;;;;;11.82;3.00;;;9.70;99.90;;;;;;4128578;28;20038;-76
2023/03/26 03:32:28;;;;;;;8.15;3.33;;;9.70;99.90;;;;;;4131631;28;20434;-76
2023/03/26 03:34:28;;;;;;;10.77;3.15;;;9.70;99.90;;;;;;4125354;28;20046;-76
2023/03/26 03:36:31;;;;;;;17.27;3.47;;;9.70;99.90;;;;;;4128722;28;20089;-76
2023/03/26 03:38:32;;;;;;;9.55;3.05;;;9.70;99.90;;;;;;4128570;28;20034;-76
2023/03/26 03:40:33;;;;;;;13.20;3.25;;;9.70;99.90;;;;;;4127640;28;20029;-76
2023/03/26 03:42:33;;;;;;;10.35;3.38;;;9.70;99.90;;;;;;4130717;28;20117;-76
2023/03/26 03:44:34;;;;;;;9.30;3.05;;;9.70;99.90;;;;;;4130162;28;20114;-76
2023/03/26 03:46:35;;;;;;;9.15;3.10;;;9.70;99.90;;;;;;4129664;28;20022;-76
2023/03/26 03:48:38;;;;;;;10.25;2.80;;;9.70;99.90;;;;;;4129324;28;20038;-76
2023/03/26 03:50:39;;;;;;;12.00;3.10;;;9.60;99.90;;;;;;4130505;28;20077;-76
2023/03/26 03:52:40;;;;;;;10.10;3.60;;;9.70;99.90;;;;;;4128670;28;20039;-76
2023/03/26 03:54:40;;;;;;;14.25;3.25;;;9.70;99.90;;;;;;4124780;28;24421;-76
2023/03/26 03:56:41;;;;;;;11.23;2.63;;;9.60;99.90;;;;;;4124630;28;20046;-76
2023/03/26 03:58:44;;;;;;;8.32;3.22;;;9.60;99.90;;;;;;4129705;28;20058;-76
2023/03/26 04:00:45;;;;;;;15.82;3.65;;;9.60;99.90;;;;;;4127353;28;20122;-76
2023/03/26 04:02:45;;;;;;;11.23;3.65;;;9.60;99.90;;;;;;4126028;28;20031;-76
2023/03/26 04:04:48;;;;;;;13.32;3.53;;;9.60;99.90;;;;;;4131697;28;20034;-76
2023/03/26 04:06:50;;;;;;;10.85;3.10;;;9.60;99.90;;;;;;4131846;28;20111;-76
2023/03/26 04:08:51;;;;;;;11.10;3.00;;;9.60;99.90;;;;;;4129717;28;20553;-76
2023/03/26 04:10:51;;;;;;;11.35;3.00;;;9.60;99.90;;;;;;4137996;28;20113;-75
2023/03/26 04:12:52;;;;;;;8.68;3.13;;;9.60;99.90;;;;;;4128073;28;20153;-75
2023/03/26 04:14:53;;;;;;;16.77;4.00;;;9.60;99.90;;;;;;4132051;28;20048;-75
2023/03/26 04:16:54;;;;;;;9.88;3.22;;;9.60;99.90;;;;;;4130567;28;20027;-76
2023/03/26 04:18:56;;;;;;;12.18;3.95;;;9.60;99.90;;;;;;4129964;28;20041;-76
2023/03/26 04:21:01;;;;;;;8.27;3.10;;;9.60;99.90;;;;;;4135361;28;20414;-76
2023/03/26 04:23:02;;;;;;;12.43;3.53;;;9.60;99.90;;;;;;4134625;28;20046;-76
2023/03/26 04:25:04;;;;;;;10.90;3.03;;;9.50;99.90;;;;;;4130711;28;20038;-76
2023/03/26 04:27:08;;;;;;;10.25;2.92;;;9.50;99.90;;;;;;4129732;28;20409;-76
2023/03/26 04:29:15;;;;;;;10.35;2.95;;;9.50;99.90;;;;;;4130651;28;20049;-76
2023/03/26 04:31:22;;;;;;;9.07;2.97;;;9.50;99.90;;;;;;4130730;28;20434;-77
2023/03/26 04:33:23;;;;;;;8.65;2.65;;;9.50;99.90;;;;;;4133420;28;20173;-76
2023/03/26 04:35:24;;;;;;;11.70;3.10;;;9.50;99.90;;;;;;4130508;28;20037;-77
2023/03/26 04:37:31;;;;;;;12.88;2.90;;;9.50;99.90;;;;;;4130734;28;20038;-77
2023/03/26 04:39:33;;;;;;;11.88;3.00;;;9.50;99.90;;;;;;4129616;28;20553;-77
2023/03/26 04:41:33;;;;;;;11.43;2.83;;;9.50;99.90;;;;;;4134080;28;20124;-77
2023/03/26 04:43:41;;;;;;;9.63;2.83;;;9.50;99.90;;;;;;4133203;28;20807;-77
2023/03/26 04:45:42;;;;;;;10.35;2.78;;;9.50;99.90;;;;;;4129564;28;20153;-77
2023/03/26 04:47:45;;;;;;;7.00;2.15;;;9.50;99.90;;;;;;4130696;28;20042;-77
2023/03/26 04:49:47;;;;;;;11.85;3.22;;;9.50;99.90;;;;;;4130752;28;20042;-75
2023/03/26 04:51:47;;;;;;;7.43;2.53;;;9.60;99.90;;;;;;4138308;28;20042;-76
2023/03/26 04:53:54;;;;;;;6.72;2.50;;;9.60;99.90;;;;;;4134054;28;20514;-73
2023/03/26 04:56:00;;;;;;;13.63;2.72;;;9.60;99.90;;;;;;4129064;28;20034;-77
2023/03/26 04:58:04;;;;;;;8.52;2.90;;;9.60;99.90;;;;;;4135575;28;20037;-77
2023/03/26 05:00:13;;;;;;;11.43;3.20;;;9.60;99.90;;;;;;4127976;28;20125;-77
2023/03/26 05:02:14;;;;;;;10.32;2.78;;;9.60;99.90;;;;;;4135215;28;20457;-78
2023/03/26 05:04:15;;;;;;;10.95;2.83;;;9.60;99.90;;;;;;4131693;28;20038;-77
2023/03/26 05:06:16;;;;;;;8.30;2.40;;;9.60;99.90;;;;;;4131151;28;20481;-78
2023/03/26 05:08:17;;;;;;;7.80;2.30;;;9.50;99.90;;;;;;4130852;28;20493;-78
2023/03/26 05:10:19;;;;;;;9.73;2.22;;;9.50;99.90;;;;;;4131872;28;20096;-77
2023/03/26 05:12:20;;;;;;;6.75;2.00;;;9.50;99.90;;;;;;4131022;28;20037;-77
2023/03/26 05:14:20;;;;;;;10.18;2.83;;;9.60;99.90;;;;;;4130205;28;20504;-77
2023/03/26 05:16:22;;;;;;;8.50;2.55;;;9.60;99.90;;;;;;4131818;28;20118;-77
2023/03/26 05:18:23;;;;;;;9.03;2.37;;;9.50;99.90;;;;;;4128681;28;20027;-75
2023/03/26 05:20:26;;;;;;;9.02;2.40;;;9.60;99.90;;;;;;4126949;28;20884;-76
2023/03/26 05:22:26;;;;;;;10.98;2.75;;;9.60;99.90;;;;;;4149691;28;20105;-77
2023/03/26 05:24:27;;;;;;;7.43;1.80;;;9.60;99.90;;;;;;4134755;28;20039;-77
2023/03/26 05:26:28;;;;;;;8.48;2.10;;;9.60;99.90;;;;;;4130927;28;20121;-77
2023/03/26 05:28:29;;;;;;;7.07;2.05;;;9.60;99.90;;;;;;4129904;28;20493;-77
2023/03/26 05:30:29;;;;;;;8.32;2.70;;;9.60;99.90;;;;;;4129924;28;20132;-77
2023/03/26 05:32:31;;;;;;;7.55;2.60;;;9.60;99.90;;;;;;4133291;28;20037;-77
2023/03/26 05:34:31;;;;;;;7.38;2.55;;;9.60;99.90;;;;;;4129905;28;20034;-77
2023/03/26 05:36:32;;;;;;;9.70;3.08;;;9.60;99.90;;;;;;4130614;28;20494;-78
2023/03/26 05:38:33;;;;;;;9.13;3.08;;;9.50;99.90;;;;;;4130685;28;20390;-77
2023/03/26 05:40:33;;;;;;;9.90;2.58;;;9.50;99.90;;;;;;4129972;28;20058;-77
2023/03/26 05:42:34;;;;;;;7.18;2.15;;;9.50;99.90;;;;;;4132427;28;20494;-77
2023/03/26 05:44:35;;;;;;;7.70;2.30;;;9.50;99.90;;;;;;4128928;28;20042;-76
2023/03/26 05:46:35;;;;;;;9.52;2.88;;;9.50;99.90;;;;;;4129673;28;20117;-75
2023/03/26 05:48:37;;;;;;;10.80;2.97;;;9.40;99.90;;;;;;4126979;28;20035;-77
2023/03/26 05:50:37;;;;;;;14.00;2.92;;;9.40;99.90;;;;;;4130143;28;20039;-77
2023/03/26 05:52:38;;;;;;;9.85;2.78;;;9.40;99.90;;;;;;4130163;28;20029;-77
2023/03/26 05:54:38;;;;;;;7.50;2.42;;;9.40;99.90;;;;;;4129232;28;20117;-76
2023/03/26 05:56:39;;;;;;;15.05;2.88;;;9.40;99.90;;;;;;4129933;28;20030;-76
2023/03/26 05:58:40;;;;;;;10.65;2.30;;;9.40;99.90;;;;;;4129318;28;20045;-76
2023/03/26 06:00:42;;;;;;;10.93;2.45;;;9.40;99.90;;;;;;4129055;28;20031;-76
2023/03/26 06:02:42;;;;;;;10.88;2.40;;;9.40;99.90;;;;;;4128374;28;20386;-76
2023/03/26 06:04:44;;;;;;;8.85;2.35;;;9.40;99.90;;;;;;4133888;28;20054;-77
2023/03/26 06:06:45;;;;;;;7.88;2.60;;;9.40;99.90;;;;;;4131223;28;20112;-77
2023/03/26 06:08:49;;;;;;;8.18;2.40;;;9.40;99.90;;;;;;4133501;28;20050;-76
2023/03/26 06:10:49;;;;;;;7.40;2.10;;;9.40;99.90;;;;;;4129645;28;20038;-74
2023/03/26 06:12:50;;;;;;;9.68;2.40;;;9.30;99.90;;;;;;4129639;28;20034;-76
2023/03/26 06:14:51;;;;;;;8.63;2.78;;;9.30;99.90;;;;;;4129672;28;20038;-77
2023/03/26 06:16:51;;;;;;;9.40;2.55;;;9.30;99.90;;;;;;4128063;28;20022;-76
2023/03/26 06:18:52;;;;;;;7.13;2.35;;;9.30;99.90;;;;;;4126614;28;20035;-77
2023/03/26 06:20:53;;;;;;;12.98;2.92;;;9.30;99.90;;;;;;4129350;28;20092;-72
2023/03/26 06:22:54;;;;;;;10.35;2.42;;;9.30;99.90;;;;;;4126018;28;20027;-75
2023/03/26 06:24:55;;;;;;;8.63;2.42;;;9.30;99.90;;;;;;4130026;28;20033;-76
2023/03/26 06:26:55;;;;;;;10.02;2.67;;;9.20;99.90;;;;;;4125366;28;20026;-77
2023/03/26 06:28:56;;;;;;;10.27;2.55;;;9.20;99.90;;;;;;4132285;28;20041;-77
2023/03/26 06:31:00;;;;;;;13.32;3.15;;;9.20;99.90;;;;;;4127558;28;20046;-74
2023/03/26 06:33:00;;;;;;;7.05;2.35;;;9.30;99.90;;;;;;4127331;28;20030;-77
2023/03/26 06:35:01;;;;;;;9.13;2.97;;;9.20;99.90;;;;;;4130668;28;20555;-78
2023/03/26 06:37:02;;;;;;;10.20;2.67;;;9.20;99.90;;;;;;4125756;28;20485;-78
2023/03/26 06:39:02;;;;;;;10.88;2.58;;;9.10;99.90;;;;;;4125598;28;20035;-78
2023/03/26 06:41:06;;;;;;;12.98;3.28;;;9.10;99.90;;;;;;4125303;28;20081;-78
2023/03/26 06:43:07;;;;;;;9.32;2.30;;;9.20;99.90;;;;;;4126328;28;20034;-78
2023/03/26 06:45:08;;;;;;;9.60;2.65;;;9.20;99.90;;;;;;4128981;28;20041;-79
2023/03/26 06:47:09;;;;;;;8.07;2.50;;;9.10;99.90;;;;;;4127440;28;20049;-78
2023/03/26 06:49:09;;;;;;;17.85;3.10;;;9.20;99.90;;;;;;4127390;28;20486;-78
2023/03/26 06:51:10;;;;;;;8.82;2.70;;;9.20;99.90;;;;;;4128436;28;20112;-79
2023/03/26 06:53:11;;;;;;;11.93;2.85;;;9.20;99.90;;;;;;4128254;28;20442;-78
2023/03/26 06:55:12;;;;;;;11.13;3.08;;;9.10;99.90;;;;;;4139737;28;20385;-77
2023/03/26 06:57:13;;;;;;;8.43;2.20;;;9.20;99.90;;;;;;4134504;28;20030;-79
2023/03/26 06:59:14;;;;;;;8.32;2.50;;;9.20;99.90;;;;;;4134564;28;20109;-70
2023/03/26 07:01:14;;;;;;;13.32;3.20;;;9.20;99.90;;;;;;4133592;28;20093;-73
2023/03/26 07:03:16;;;;;;;12.77;3.00;;;9.20;99.90;;;;;;4135738;28;20053;-73
2023/03/26 07:05:16;;;;;;;9.50;2.78;;;9.20;99.90;;;;;;4131750;28;20046;-74
2023/03/26 07:07:20;;;;;;;8.18;2.78;;;9.30;99.90;;;;;;4131281;28;20062;-73
2023/03/26 07:09:21;;;;;;;10.63;3.33;;;9.30;99.90;;;;;;4130808;28;20078;-67
2023/03/26 07:11:24;;;;;;;9.65;2.72;;;9.30;99.90;;;;;;4132931;28;20036;-71
2023/03/26 07:13:24;;;;;;;10.50;2.67;;;9.40;99.90;;;;;;4128061;28;20096;-71
2023/03/26 07:15:27;;;;;;;6.60;2.67;;;9.40;99.90;;;;;;4133661;28;20043;-74
2023/03/26 07:17:28;;;;;;;11.30;3.40;;;9.40;99.90;;;;;;4128133;28;20085;-75
2023/03/26 07:19:28;;;;;;;12.27;3.55;;;9.40;99.90;;;;;;4130647;28;20541;-74
2023/03/26 07:21:29;;;;;;;9.95;3.13;;;9.40;99.90;;;;;;4129309;28;20034;-74
2023/03/26 07:23:30;;;;;;;9.68;3.08;;;9.40;99.90;;;;;;4130663;28;20149;-74
2023/03/26 07:25:31;;;;;;;13.35;4.15;;;9.40;99.90;;;;;;4133059;28;20064;-74
2023/03/26 07:27:51;;;;;;;11.27;3.58;;;9.40;99.90;;;;;;4132097;28;20113;-75
2023/03/26 07:30:15;;;;;;;12.35;3.75;;;9.40;99.90;;;;;;4127129;28;20474;-73
2023/03/26 07:32:29;;;;;;;11.63;3.00;;;9.30;99.90;;;;;;4128930;28;20030;-75
2023/03/26 07:34:30;;;;;;;16.63;4.35;;;9.30;99.90;;;;;;4131626;28;20547;-74
2023/03/26 07:37:00;;;;;;;15.77;4.07;;;9.30;99.90;;;;;;4127141;28;20026;-74
2023/03/26 07:39:15;;;;;;;15.07;4.13;;;9.20;99.90;;;;;;4130460;28;20456;-74
2023/03/26 07:41:27;;;;;;;14.73;3.60;;;9.20;99.90;;;;;;4133104;28;20514;-74
2023/03/26 07:43:57;;;;;;;13.27;3.28;;;9.20;99.90;;;;;;4133126;28;20092;-74
2023/03/26 07:45:58;;;;;;;11.75;2.85;;;9.30;99.90;;;;;;4133948;28;20109;-73
2023/03/26 07:47:59;;;;;;;15.48;3.30;;;9.30;99.90;;;;;;4134542;28;20030;-74
2023/03/26 07:50:00;;;;;;;12.07;3.72;;;9.20;99.90;;;;;;4126587;28;20493;-74
2023/03/26 07:52:01;;;;;;;8.40;3.35;;;9.30;99.90;;;;;;4131833;28;20022;-73
2023/03/26 07:54:03;;;;;;;13.13;3.38;;;9.30;99.90;;;;;;4143599;28;20050;-74
2023/03/26 07:56:10;;;;;;;10.13;3.40;;;9.30;99.90;;;;;;4133659;28;20045;-73
2023/03/26 07:58:40;;;;;;;12.15;3.20;;;9.30;99.90;;;;;;4134363;28;20037;-73
2023/03/26 08:00:50;;;;;;;7.22;3.00;;;9.40;99.90;;;;;;4131864;28;20109;-73
2023/03/26 08:03:12;;;;;;;13.82;3.70;;;9.40;99.90;;;;;;4134804;28;20563;-71
2023/03/26 08:05:19;;;;;;;11.23;3.35;;;9.40;99.90;;;;;;4134440;28;20064;-74
2023/03/26 08:07:50;;;;;;;11.23;3.13;;;9.30;99.90;;;;;;4162733;28;20469;-74
2023/03/26 08:10:02;;;;;;;14.75;3.88;;;9.30;99.90;;;;;;4081363;28;20094;-73
2023/03/26 08:12:25;;;;;;;12.05;2.65;;;9.40;99.90;;;;;;4133619;28;20048;-74
2023/03/26 08:14:36;;;;;;;11.77;3.15;;;9.40;99.90;;;;;;4132429;28;20041;-72
2023/03/26 08:17:27;;;;;;;10.63;2.90;;;9.40;99.90;;;;;;4134949;28;20034;-73
2023/03/26 08:19:47;;;;;;;18.55;3.88;;;9.40;99.90;;;;;;4142404;28;20049;-73
2023/03/26 08:21:54;;;;;;;8.70;3.33;;;9.40;99.90;;;;;;4132493;28;20355;-74
2023/03/26 08:24:11;;;;;;;12.90;3.78;;;9.40;99.90;;;;;;4134835;28;20023;-73
2023/03/26 08:26:40;;;;;;;11.15;3.20;;;9.40;99.90;;;;;;4133868;28;20168;-73
2023/03/26 08:29:07;;;;;;;12.85;3.75;;;9.40;99.90;;;;;;4124535;28;20080;-73
2023/03/26 08:31:12;;;;;;;9.90;3.35;;;9.40;99.90;;;;;;4132520;28;20027;-74
2023/03/26 08:33:17;;;;;;;10.05;3.05;;;9.40;99.90;;;;;;4134871;28;20030;-74
2023/03/26 08:35:17;;;;;;;14.95;4.07;;;9.40;99.90;;;;;;4132756;28;20060;-74
2023/03/26 08:37:18;;;;;;;10.95;3.60;;;9.40;99.90;;;;;;4133758;28;20058;-74
2023/03/26 08:39:21;;;;;;;12.90;4.10;;;9.40;99.90;;;;;;4133057;28;20103;-74
2023/03/26 08:41:33;;;;;;;12.38;3.83;;;9.40;99.90;;;;;;4134737;28;20038;-73
2023/03/26 08:44:01;;;;;;;11.75;3.60;;;9.40;99.90;;;;;;4133067;28;20045;-73
2023/03/26 08:46:20;;;;;;;9.85;2.78;;;9.40;99.90;;;;;;4131146;28;20410;-73
2023/03/26 08:48:42;;;;;;;9.10;2.63;;;9.40;99.90;;;;;;4121384;28;20045;-74
2023/03/26 08:51:02;;;;;;;9.88;3.38;;;9.40;99.90;;;;;;4120957;28;20081;-74
2023/03/26 08:53:31;;;;;;;11.35;3.60;;;9.40;99.90;;;;;;4133664;28;20105;-74
2023/03/26 08:56:23;;;;;;;9.25;3.08;;;9.50;99.90;;;;;;4130870;28;20046;-75
2023/03/26 08:59:05;;;;;;;14.30;3.42;;;9.50;99.90;;;;;;4103784;28;20035;-73
2023/03/26 09:01:30;;;;;;;11.70;3.22;;;9.50;99.90;;;;;;4129218;28;20026;-74
2023/03/26 09:03:42;;;;;;;8.07;3.38;;;9.50;99.90;;;;;;4133682;28;20042;-74
2023/03/26 09:06:01;;;;;;;10.82;3.30;;;9.50;99.90;;;;;;4128229;28;20121;-74
2023/03/26 09:08:23;;;;;;;7.90;3.13;;;9.50;99.90;;;;;;4120802;28;20030;-74
2023/03/26 09:10:48;;;;;;;8.55;2.90;;;9.50;99.90;;;;;;4127445;28;20031;-73
2023/03/26 09:13:16;;;;;;;7.55;3.17;;;9.50;99.90;;;;;;4128381;28;20030;-74
2023/03/26 09:15:41;;;;;;;9.73;2.60;;;9.50;99.90;;;;;;4128673;28;20054;-74
2023/03/26 09:18:00;;;;;;;8.45;2.97;;;9.60;99.90;;;;;;4128582;28;20034;-74
2023/03/26 09:20:10;;;;;;;9.52;3.08;;;9.60;99.90;;;;;;4131515;28;20053;-74
2023/03/26 09:22:45;;;;;;;8.88;3.00;;;9.50;99.90;;;;;;4130024;28;20026;-73
2023/03/26 09:25:40;;;;;;;7.40;3.08;;;9.60;99.90;;;;;;4129623;28;20104;-73
2023/03/26 09:28:03;;;;;;;11.07;3.60;;;9.60;99.90;;;;;;4103838;28;20465;-73
2023/03/26 09:30:22;;;;;;;14.93;3.50;;;9.60;99.90;;;;;;4132857;28;20477;-74
2023/03/26 09:32:51;;;;;;;8.13;2.97;;;9.50;99.90;;;;;;4142286;28;20030;-68
2023/03/26 09:35:25;;;;;;;9.80;3.20;;;9.50;99.90;;;;;;4135574;28;20173;-74
2023/03/26 09:37:44;;;;;;;;;;;9.50;99.90;;;;;;4130254;28;20088;-74
2023/03/26 09:39:47;;;;;;;10.63;3.35;;;9.50;99.90;;;;;;4137124;28;20043;-74
2023/03/26 09:41:59;;;;;;;11.30;3.40;;;9.50;99.90;;;;;;4129762;28;20102;-74
2023/03/26 09:44:24;;;;;;;9.02;3.33;;;9.40;99.90;;;;;;4129753;28;20503;-74
2023/03/26 09:46:34;;;;;;;6.68;2.83;;;9.50;99.90;;;;;;4128619;28;20352;-73
2023/03/26 09:49:01;;;;;;;9.23;3.20;;;9.50;99.90;;;;;;4130770;28;20030;-74
2023/03/26 09:51:17;;;;;;;8.68;3.45;;;9.50;99.90;;;;;;4134208;28;20479;-73
2023/03/26 09:53:45;;;;;;;8.40;3.25;;;9.50;99.90;;;;;;4130330;28;20042;-73
2023/03/26 09:56:11;;;;;;;4.55;2.20;;;9.50;99.90;;;;;;4128419;28;20122;-72
2023/03/26 09:58:33;;;;;;;7.35;2.55;;;9.60;99.90;;;;;;4124137;28;20033;-73
2023/03/26 10:00:48;;;;;;;9.38;2.83;;;9.60;99.90;;;;;;4123936;28;20046;-70
2023/03/26 10:03:13;;;;;;;9.30;3.35;;;9.60;99.90;;;;;;4125365;28;20038;-73
2023/03/26 10:05:47;;;;;;;5.78;2.38;;;9.60;99.90;;;;;;4128338;28;20073;-73
2023/03/26 10:08:06;;;;;;;;;;;9.50;99.90;;;;;;4129505;28;20034;-73
2023/03/26 10:10:27;;;;;;;9.35;2.50;;;9.50;99.90;;;;;;4126039;28;19913;-74
2023/03/26 10:12:37;;;;;;;7.07;2.25;;;9.50;99.90;;;;;;4127568;28;20038;-72
2023/03/26 10:14:52;;;;;;;5.50;2.00;;;9.50;99.90;;;;;;4133294;28;20372;-75
2023/03/26 10:17:08;;;;;;;6.15;2.33;;;9.50;99.90;;;;;;4129232;28;20071;-74
2023/03/26 10:19:17;;;;;;;6.43;2.13;;;9.50;99.90;;;;;;4125998;28;20054;-74
2023/03/26 10:21:39;;;;;;;5.22;2.00;;;9.30;99.90;;;;;;4127403;28;20505;-75
2023/03/26 10:24:01;;;;;;;4.85;2.15;;;9.40;99.90;;;;;;4129364;28;20034;-74
2023/03/26 10:26:36;;;;;;;5.53;1.92;;;9.40;99.90;;;;;;4130105;28;20058;-74
2023/03/26 10:29:02;;;;;;;5.60;2.05;;;9.40;99.90;;;;;;4125584;28;20041;-73
2023/03/26 10:31:14;;;;;;;5.30;1.90;;;9.50;99.90;;;;;;4127291;28;20536;-72
2023/03/26 10:33:36;;;;;;;5.90;1.60;;;9.40;99.90;;;;;;4129482;28;20492;-73
2023/03/26 10:36:01;;;;;;;8.23;1.77;;;9.30;99.90;;;;;;4128443;28;20110;-74
2023/03/26 10:38:12;;;;;;;5.13;1.23;;;9.20;99.90;;;;;;4123199;28;20080;-73
2023/03/26 10:40:33;;;;;;;4.55;1.40;;;9.20;99.90;;;;;;4132107;28;20036;-74
2023/03/26 10:42:34;;;;;;;6.20;1.50;;;9.20;99.90;;;;;;4131985;28;20117;-73
2023/03/26 10:44:59;;;;;;;1.92;1.10;;;9.30;99.90;;;;;;4130547;28;20042;-73
2023/03/26 10:47:16;;;;;;;4.85;1.50;;;9.30;99.90;;;;;;4126646;28;20384;-73
2023/03/26 10:49:34;;;;;;;2.65;0.98;;;9.30;99.90;;;;;;4129617;28;20034;-74
2023/03/26 10:51:50;;;;;;;4.18;1.33;;;9.30;99.90;;;;;;4129910;28;20050;-73
2023/03/26 10:54:02;;;;;;;3.50;1.20;;;9.30;99.90;;;;;;4136420;28;20045;-74
2023/03/26 10:56:27;;;;;;;5.88;1.80;;;9.30;99.90;;;;;;4128290;28;20030;-73
2023/03/26 10:58:28;;;;;;;3.88;1.35;;;9.30;99.90;;;;;;4125898;28;20048;-70
2023/03/26 11:00:30;;;;;;;5.13;1.85;;;9.30;99.90;;;;;;4127376;28;20042;-73
2023/03/26 11:02:57;;;;;;;2.10;1.15;;;9.30;99.90;;;;;;4127917;28;20046;-73
2023/03/26 11:05:03;;;;;;;3.17;0.80;;;9.20;99.90;;;;;;4126332;28;20379;-72
2023/03/26 11:07:16;;;;;;;1.38;0.85;;;9.20;99.90;;;;;;4128923;28;20040;-74
2023/03/26 11:09:41;;;;;;;4.35;1.38;;;9.20;99.90;;;;;;4126646;28;20113;-73